Amador City, California
Current Conditions -  °F | °C
As of 5:55 AM on Saturday 01 Nov 2014 (Local Time) from KPVF Reporting Station
Overcast Overcast  
Wind Chill: 39°   Ceiling: 300
Heat Index: 43°   Visibility: 0.75mi
Dew Point: 43°   Wind: 7mph
Humidity: 100%   Direction: 170°S
Pressure: 29.78"   Gusts: NA
Location:  38.42°N, 120.82°W
Report Text: KPVF 011255Z AUTO 17006KT 3/4SM OVC003 06/06 A2978 RMK AO1 VSBY 1/2V1 3/4 P0004
Loading
Personal Weather Stations






























Interactive Weather Map
Tropical Storm Tracking
New forecast layout! Learn more

10-Day Weather Forecast

Advertisements
Track Severe Weather on mobile